sensor_id;sensor_type;location;lat;lon;timestamp;temperature;humidity
47482;DHT22;33219;47.410;9.730;2024-01-27T00:01:36;6.80;99.90
47482;DHT22;33219;47.410;9.730;2024-01-27T00:04:03;6.80;99.90
47482;DHT22;33219;47.410;9.730;2024-01-27T00:06:30;6.80;99.90
47482;DHT22;33219;47.410;9.730;2024-01-27T00:08:57;6.80;99.90
47482;DHT22;33219;47.410;9.730;2024-01-27T00:11:24;6.80;99.90
47482;DHT22;33219;47.410;9.730;2024-01-27T00:13:51;6.70;99.90
47482;DHT22;33219;47.410;9.730;2024-01-27T00:16:17;6.80;99.90
47482;DHT22;33219;47.410;9.730;2024-01-27T00:18:45;6.70;99.90
47482;DHT22;33219;47.410;9.730;2024-01-27T00:21:12;6.70;99.90
47482;DHT22;33219;47.410;9.730;2024-01-27T00:23:39;6.70;99.90
47482;DHT22;33219;47.410;9.730;2024-01-27T00:26:07;6.60;99.90
47482;DHT22;33219;47.410;9.730;2024-01-27T00:28:34;6.60;99.90
47482;DHT22;33219;47.410;9.730;2024-01-27T00:31:00;6.60;99.90
47482;DHT22;33219;47.410;9.730;2024-01-27T00:33:27;6.60;99.90
47482;DHT22;33219;47.410;9.730;2024-01-27T00:35:54;6.60;99.90
47482;DHT22;33219;47.410;9.730;2024-01-27T00:38:21;6.60;99.90
47482;DHT22;33219;47.410;9.730;2024-01-27T00:40:48;6.60;99.90
47482;DHT22;33219;47.410;9.730;2024-01-27T00:43:15;6.50;99.90
47482;DHT22;33219;47.410;9.730;2024-01-27T00:45:42;6.60;99.90
47482;DHT22;33219;47.410;9.730;2024-01-27T00:48:08;6.50;99.90
47482;DHT22;33219;47.410;9.730;2024-01-27T00:50:36;6.50;99.90
47482;DHT22;33219;47.410;9.730;2024-01-27T00:53:03;6.50;99.90
47482;DHT22;33219;47.410;9.730;2024-01-27T00:55:30;6.40;99.90
47482;DHT22;33219;47.410;9.730;2024-01-27T00:57:57;6.40;99.90
47482;DHT22;33219;47.410;9.730;2024-01-27T01:00:23;6.40;99.90
47482;DHT22;33219;47.410;9.730;2024-01-27T01:02:50;6.40;99.90
47482;DHT22;33219;47.410;9.730;2024-01-27T01:05:17;6.40;99.90
47482;DHT22;33219;47.410;9.730;2024-01-27T01:07:44;6.40;99.90
47482;DHT22;33219;47.410;9.730;2024-01-27T01:10:11;6.40;99.90
47482;DHT22;33219;47.410;9.730;2024-01-27T01:12:38;6.40;99.90
47482;DHT22;33219;47.410;9.730;2024-01-27T01:15:05;6.40;99.90
47482;DHT22;33219;47.410;9.730;2024-01-27T01:17:32;6.30;99.90
47482;DHT22;33219;47.410;9.730;2024-01-27T01:19:59;6.40;99.90
47482;DHT22;33219;47.410;9.730;2024-01-27T01:22:26;6.30;99.90
47482;DHT22;33219;47.410;9.730;2024-01-27T01:24:53;6.30;99.90
47482;DHT22;33219;47.410;9.730;2024-01-27T01:27:19;6.30;99.90
47482;DHT22;33219;47.410;9.730;2024-01-27T01:29:47;6.20;99.90
47482;DHT22;33219;47.410;9.730;2024-01-27T01:32:14;6.20;99.90
47482;DHT22;33219;47.410;9.730;2024-01-27T01:34:41;6.30;99.90
47482;DHT22;33219;47.410;9.730;2024-01-27T01:37:08;6.30;99.90
47482;DHT22;33219;47.410;9.730;2024-01-27T01:39:35;6.40;99.90
47482;DHT22;33219;47.410;9.730;2024-01-27T01:42:01;6.30;99.90
47482;DHT22;33219;47.410;9.730;2024-01-27T01:44:29;6.40;99.90
47482;DHT22;33219;47.410;9.730;2024-01-27T01:46:57;6.40;99.90
47482;DHT22;33219;47.410;9.730;2024-01-27T01:49:24;6.40;99.90
47482;DHT22;33219;47.410;9.730;2024-01-27T01:51:51;6.40;99.90
47482;DHT22;33219;47.410;9.730;2024-01-27T01:54:18;6.40;99.90
47482;DHT22;33219;47.410;9.730;2024-01-27T01:56:45;6.40;99.90
47482;DHT22;33219;47.410;9.730;2024-01-27T01:59:13;6.40;99.90
47482;DHT22;33219;47.410;9.730;2024-01-27T02:01:40;6.30;99.90
47482;DHT22;33219;47.410;9.730;2024-01-27T02:04:06;6.30;99.90
47482;DHT22;33219;47.410;9.730;2024-01-27T02:06:33;6.20;99.90
47482;DHT22;33219;47.410;9.730;2024-01-27T02:09:00;6.20;99.90
47482;DHT22;33219;47.410;9.730;2024-01-27T02:11:27;6.10;99.90
47482;DHT22;33219;47.410;9.730;2024-01-27T02:13:54;6.10;99.90
47482;DHT22;33219;47.410;9.730;2024-01-27T02:16:21;6.10;99.90
47482;DHT22;33219;47.410;9.730;2024-01-27T02:18:47;6.10;99.90
47482;DHT22;33219;47.410;9.730;2024-01-27T02:21:14;6.00;99.90
47482;DHT22;33219;47.410;9.730;2024-01-27T02:23:41;6.00;99.90
47482;DHT22;33219;47.410;9.730;2024-01-27T02:26:08;6.00;99.90
47482;DHT22;33219;47.410;9.730;2024-01-27T02:28:35;6.00;99.90
47482;DHT22;33219;47.410;9.730;2024-01-27T02:31:02;6.00;99.90
47482;DHT22;33219;47.410;9.730;2024-01-27T02:33:29;6.00;99.90
47482;DHT22;33219;47.410;9.730;2024-01-27T02:35:56;6.00;99.90
47482;DHT22;33219;47.410;9.730;2024-01-27T02:38:23;6.00;99.90
47482;DHT22;33219;47.410;9.730;2024-01-27T02:40:50;6.00;99.90
47482;DHT22;33219;47.410;9.730;2024-01-27T02:43:16;6.00;99.90
47482;DHT22;33219;47.410;9.730;2024-01-27T02:45:43;6.00;99.90
47482;DHT22;33219;47.410;9.730;2024-01-27T02:48:10;6.00;99.90
47482;DHT22;33219;47.410;9.730;2024-01-27T02:50:37;5.90;99.90
47482;DHT22;33219;47.410;9.730;2024-01-27T02:53:04;5.90;99.90
47482;DHT22;33219;47.410;9.730;2024-01-27T02:55:30;5.90;99.90
47482;DHT22;33219;47.410;9.730;2024-01-27T02:57:57;5.90;99.90
47482;DHT22;33219;47.410;9.730;2024-01-27T03:00:24;5.90;99.90
47482;DHT22;33219;47.410;9.730;2024-01-27T03:02:51;5.90;99.90
47482;DHT22;33219;47.410;9.730;2024-01-27T03:05:18;5.90;99.90
47482;DHT22;33219;47.410;9.730;2024-01-27T03:07:45;5.90;99.90
47482;DHT22;33219;47.410;9.730;2024-01-27T03:10:12;5.80;99.90
47482;DHT22;33219;47.410;9.730;2024-01-27T03:12:39;5.80;99.90
47482;DHT22;33219;47.410;9.730;2024-01-27T03:15:06;5.80;99.90
47482;DHT22;33219;47.410;9.730;2024-01-27T03:17:33;5.80;99.90
47482;DHT22;33219;47.410;9.730;2024-01-27T03:20:00;5.80;99.90
47482;DHT22;33219;47.410;9.730;2024-01-27T03:22:27;5.70;99.90
47482;DHT22;33219;47.410;9.730;2024-01-27T03:24:54;5.70;99.90
47482;DHT22;33219;47.410;9.730;2024-01-27T03:27:21;5.70;99.90
47482;DHT22;33219;47.410;9.730;2024-01-27T03:29:48;5.70;99.90
47482;DHT22;33219;47.410;9.730;2024-01-27T03:32:14;5.70;99.90
47482;DHT22;33219;47.410;9.730;2024-01-27T03:34:43;5.70;99.90
47482;DHT22;33219;47.410;9.730;2024-01-27T03:37:11;5.60;99.90
47482;DHT22;33219;47.410;9.730;2024-01-27T03:39:40;5.70;99.90
47482;DHT22;33219;47.410;9.730;2024-01-27T03:42:06;5.60;99.90
47482;DHT22;33219;47.410;9.730;2024-01-27T03:44:33;5.60;99.90
47482;DHT22;33219;47.410;9.730;2024-01-27T03:47:00;5.60;99.90
47482;DHT22;33219;47.410;9.730;2024-01-27T03:49:26;5.60;99.90
47482;DHT22;33219;47.410;9.730;2024-01-27T03:51:53;5.50;99.90
47482;DHT22;33219;47.410;9.730;2024-01-27T03:54:20;5.50;99.90
47482;DHT22;33219;47.410;9.730;2024-01-27T03:56:47;5.50;99.90
47482;DHT22;33219;47.410;9.730;2024-01-27T03:59:14;5.50;99.90
47482;DHT22;33219;47.410;9.730;2024-01-27T04:01:41;5.40;99.90
47482;DHT22;33219;47.410;9.730;2024-01-27T04:04:08;5.40;99.90
47482;DHT22;33219;47.410;9.730;2024-01-27T04:06:38;5.40;99.90
47482;DHT22;33219;47.410;9.730;2024-01-27T04:09:05;5.80;99.90
47482;DHT22;33219;47.410;9.730;2024-01-27T04:11:35;5.40;99.90
47482;DHT22;33219;47.410;9.730;2024-01-27T04:14:03;5.40;99.90
47482;DHT22;33219;47.410;9.730;2024-01-27T04:16:30;5.50;99.90
47482;DHT22;33219;47.410;9.730;2024-01-27T04:18:56;5.50;99.90
47482;DHT22;33219;47.410;9.730;2024-01-27T04:21:23;5.50;99.90
47482;DHT22;33219;47.410;9.730;2024-01-27T04:23:50;5.50;99.90
47482;DHT22;33219;47.410;9.730;2024-01-27T04:26:17;5.50;99.90
47482;DHT22;33219;47.410;9.730;2024-01-27T04:28:44;5.50;99.90
47482;DHT22;33219;47.410;9.730;2024-01-27T04:31:11;5.50;99.90
47482;DHT22;33219;47.410;9.730;2024-01-27T04:33:38;5.50;99.90
47482;DHT22;33219;47.410;9.730;2024-01-27T04:36:05;5.50;99.90
47482;DHT22;33219;47.410;9.730;2024-01-27T04:38:33;5.50;99.90
47482;DHT22;33219;47.410;9.730;2024-01-27T04:41:00;5.40;99.90
47482;DHT22;33219;47.410;9.730;2024-01-27T04:43:28;5.40;99.90
47482;DHT22;33219;47.410;9.730;2024-01-27T04:45:55;5.40;99.90
47482;DHT22;33219;47.410;9.730;2024-01-27T04:48:21;5.40;99.90
47482;DHT22;33219;47.410;9.730;2024-01-27T04:50:48;5.50;99.90
47482;DHT22;33219;47.410;9.730;2024-01-27T04:53:16;5.40;99.90
47482;DHT22;33219;47.410;9.730;2024-01-27T04:55:43;5.30;99.90
47482;DHT22;33219;47.410;9.730;2024-01-27T04:58:10;5.30;99.90
47482;DHT22;33219;47.410;9.730;2024-01-27T05:00:37;5.30;99.90
47482;DHT22;33219;47.410;9.730;2024-01-27T05:03:04;5.20;99.90
47482;DHT22;33219;47.410;9.730;2024-01-27T05:05:32;5.20;99.90
47482;DHT22;33219;47.410;9.730;2024-01-27T05:07:59;5.20;99.90
47482;DHT22;33219;47.410;9.730;2024-01-27T05:10:26;5.20;99.90
47482;DHT22;33219;47.410;9.730;2024-01-27T05:12:53;5.20;99.90
47482;DHT22;33219;47.410;9.730;2024-01-27T05:15:21;5.20;99.90
47482;DHT22;33219;47.410;9.730;2024-01-27T05:17:48;5.20;99.90
47482;DHT22;33219;47.410;9.730;2024-01-27T05:20:15;5.20;99.90
47482;DHT22;33219;47.410;9.730;2024-01-27T05:22:42;5.20;99.90
47482;DHT22;33219;47.410;9.730;2024-01-27T05:25:10;5.20;99.90
47482;DHT22;33219;47.410;9.730;2024-01-27T05:27:37;5.20;99.90
47482;DHT22;33219;47.410;9.730;2024-01-27T05:30:07;5.20;99.90
47482;DHT22;33219;47.410;9.730;2024-01-27T05:32:34;5.20;99.90
47482;DHT22;33219;47.410;9.730;2024-01-27T05:35:01;5.20;99.90
47482;DHT22;33219;47.410;9.730;2024-01-27T05:37:29;5.20;99.90
47482;DHT22;33219;47.410;9.730;2024-01-27T05:39:56;5.10;99.90
47482;DHT22;33219;47.410;9.730;2024-01-27T05:42:22;5.10;99.90
47482;DHT22;33219;47.410;9.730;2024-01-27T05:44:49;5.00;99.90
47482;DHT22;33219;47.410;9.730;2024-01-27T05:47:16;5.00;99.90
47482;DHT22;33219;47.410;9.730;2024-01-27T05:49:43;5.00;99.90
47482;DHT22;33219;47.410;9.730;2024-01-27T05:52:10;5.00;99.90
47482;DHT22;33219;47.410;9.730;2024-01-27T05:54:39;5.00;99.90
47482;DHT22;33219;47.410;9.730;2024-01-27T05:57:06;5.00;99.90
47482;DHT22;33219;47.410;9.730;2024-01-27T05:59:33;5.00;99.90
47482;DHT22;33219;47.410;9.730;2024-01-27T06:02:00;4.90;99.90
47482;DHT22;33219;47.410;9.730;2024-01-27T06:04:28;4.90;99.90
47482;DHT22;33219;47.410;9.730;2024-01-27T06:06:55;4.90;99.90
47482;DHT22;33219;47.410;9.730;2024-01-27T06:09:22;4.80;99.90
47482;DHT22;33219;47.410;9.730;2024-01-27T06:11:49;4.80;99.90
47482;DHT22;33219;47.410;9.730;2024-01-27T06:14:16;4.70;99.90
47482;DHT22;33219;47.410;9.730;2024-01-27T06:16:43;4.60;99.90
47482;DHT22;33219;47.410;9.730;2024-01-27T06:19:10;4.60;99.90
47482;DHT22;33219;47.410;9.730;2024-01-27T06:21:37;4.50;99.90
47482;DHT22;33219;47.410;9.730;2024-01-27T06:24:03;4.40;99.90
47482;DHT22;33219;47.410;9.730;2024-01-27T06:26:30;4.30;99.90
47482;DHT22;33219;47.410;9.730;2024-01-27T06:28:57;4.30;99.90
47482;DHT22;33219;47.410;9.730;2024-01-27T06:31:24;4.20;99.90
47482;DHT22;33219;47.410;9.730;2024-01-27T06:33:51;4.10;99.90
47482;DHT22;33219;47.410;9.730;2024-01-27T06:36:18;4.10;99.90
47482;DHT22;33219;47.410;9.730;2024-01-27T06:38:45;4.10;99.90
47482;DHT22;33219;47.410;9.730;2024-01-27T06:41:12;4.00;99.90
47482;DHT22;33219;47.410;9.730;2024-01-27T06:43:39;4.00;99.90
47482;DHT22;33219;47.410;9.730;2024-01-27T06:46:05;4.00;99.90
47482;DHT22;33219;47.410;9.730;2024-01-27T06:48:32;3.90;99.90
47482;DHT22;33219;47.410;9.730;2024-01-27T06:50:59;3.90;99.90
47482;DHT22;33219;47.410;9.730;2024-01-27T06:53:26;3.90;99.90
47482;DHT22;33219;47.410;9.730;2024-01-27T06:55:53;3.90;99.90
47482;DHT22;33219;47.410;9.730;2024-01-27T06:58:20;3.90;99.90
47482;DHT22;33219;47.410;9.730;2024-01-27T07:00:47;3.90;99.90
47482;DHT22;33219;47.410;9.730;2024-01-27T07:03:14;3.90;99.90
47482;DHT22;33219;47.410;9.730;2024-01-27T07:05:41;3.90;99.90
47482;DHT22;33219;47.410;9.730;2024-01-27T07:08:08;3.90;99.90
47482;DHT22;33219;47.410;9.730;2024-01-27T07:10:35;3.90;99.90
47482;DHT22;33219;47.410;9.730;2024-01-27T07:13:02;3.90;99.90
47482;DHT22;33219;47.410;9.730;2024-01-27T07:15:29;4.00;99.90
47482;DHT22;33219;47.410;9.730;2024-01-27T07:17:56;3.90;99.90
47482;DHT22;33219;47.410;9.730;2024-01-27T07:20:23;3.90;99.90
47482;DHT22;33219;47.410;9.730;2024-01-27T07:22:50;3.90;99.90
47482;DHT22;33219;47.410;9.730;2024-01-27T07:25:17;3.90;99.90
47482;DHT22;33219;47.410;9.730;2024-01-27T07:27:43;3.90;99.90
47482;DHT22;33219;47.410;9.730;2024-01-27T07:30:11;3.90;99.90
47482;DHT22;33219;47.410;9.730;2024-01-27T07:32:38;3.80;99.90
47482;DHT22;33219;47.410;9.730;2024-01-27T07:35:06;3.90;99.90
47482;DHT22;33219;47.410;9.730;2024-01-27T07:37:33;3.90;99.90
47482;DHT22;33219;47.410;9.730;2024-01-27T07:40:00;4.00;99.90
47482;DHT22;33219;47.410;9.730;2024-01-27T07:42:27;4.00;99.90
47482;DHT22;33219;47.410;9.730;2024-01-27T07:44:54;4.10;99.90
47482;DHT22;33219;47.410;9.730;2024-01-27T07:47:21;4.10;99.90
47482;DHT22;33219;47.410;9.730;2024-01-27T07:49:48;4.20;99.90
47482;DHT22;33219;47.410;9.730;2024-01-27T07:52:15;4.20;99.90
47482;DHT22;33219;47.410;9.730;2024-01-27T07:54:42;4.10;99.90
47482;DHT22;33219;47.410;9.730;2024-01-27T07:57:09;4.10;99.90
47482;DHT22;33219;47.410;9.730;2024-01-27T07:59:37;4.50;99.90
47482;DHT22;33219;47.410;9.730;2024-01-27T08:02:05;4.90;99.90
47482;DHT22;33219;47.410;9.730;2024-01-27T08:04:31;5.50;99.90
47482;DHT22;33219;47.410;9.730;2024-01-27T08:06:58;6.00;99.90
47482;DHT22;33219;47.410;9.730;2024-01-27T08:09:27;6.50;99.90
47482;DHT22;33219;47.410;9.730;2024-01-27T08:11:54;7.10;99.90
47482;DHT22;33219;47.410;9.730;2024-01-27T08:14:20;7.50;99.90
47482;DHT22;33219;47.410;9.730;2024-01-27T08:16:48;7.90;99.90
47482;DHT22;33219;47.410;9.730;2024-01-27T08:19:15;8.30;99.90
47482;DHT22;33219;47.410;9.730;2024-01-27T08:21:43;8.60;99.90
47482;DHT22;33219;47.410;9.730;2024-01-27T08:24:10;8.80;99.90
47482;DHT22;33219;47.410;9.730;2024-01-27T08:26:37;9.00;99.90
47482;DHT22;33219;47.410;9.730;2024-01-27T08:29:04;9.00;99.90
47482;DHT22;33219;47.410;9.730;2024-01-27T08:31:31;9.10;99.90
47482;DHT22;33219;47.410;9.730;2024-01-27T08:33:58;9.30;99.90
47482;DHT22;33219;47.410;9.730;2024-01-27T08:36:25;9.20;99.90
47482;DHT22;33219;47.410;9.730;2024-01-27T08:38:51;9.20;99.90
47482;DHT22;33219;47.410;9.730;2024-01-27T08:41:18;9.50;99.90
47482;DHT22;33219;47.410;9.730;2024-01-27T08:43:45;9.60;99.90
47482;DHT22;33219;47.410;9.730;2024-01-27T08:46:12;9.60;99.90
47482;DHT22;33219;47.410;9.730;2024-01-27T08:48:40;9.70;99.90
47482;DHT22;33219;47.410;9.730;2024-01-27T08:51:10;9.80;99.90
47482;DHT22;33219;47.410;9.730;2024-01-27T08:53:38;9.90;99.90
47482;DHT22;33219;47.410;9.730;2024-01-27T08:56:05;10.10;99.90
47482;DHT22;33219;47.410;9.730;2024-01-27T08:58:32;9.80;99.90
47482;DHT22;33219;47.410;9.730;2024-01-27T09:00:59;9.50;99.90
47482;DHT22;33219;47.410;9.730;2024-01-27T09:03:27;8.90;99.90
47482;DHT22;33219;47.410;9.730;2024-01-27T09:05:54;8.80;99.90
47482;DHT22;33219;47.410;9.730;2024-01-27T09:08:21;8.70;99.90
47482;DHT22;33219;47.410;9.730;2024-01-27T09:10:48;8.50;99.90
47482;DHT22;33219;47.410;9.730;2024-01-27T09:13:15;8.40;99.90
47482;DHT22;33219;47.410;9.730;2024-01-27T09:15:42;8.40;99.90
47482;DHT22;33219;47.410;9.730;2024-01-27T09:18:08;8.50;99.90
47482;DHT22;33219;47.410;9.730;2024-01-27T09:20:35;8.50;99.90
47482;DHT22;33219;47.410;9.730;2024-01-27T09:23:02;8.60;99.90
47482;DHT22;33219;47.410;9.730;2024-01-27T09:25:29;8.60;99.90
47482;DHT22;33219;47.410;9.730;2024-01-27T09:27:57;8.60;99.90
47482;DHT22;33219;47.410;9.730;2024-01-27T09:30:25;8.70;99.90
47482;DHT22;33219;47.410;9.730;2024-01-27T09:32:52;8.70;99.90
47482;DHT22;33219;47.410;9.730;2024-01-27T09:35:19;8.60;99.90
47482;DHT22;33219;47.410;9.730;2024-01-27T09:37:46;8.70;99.90
47482;DHT22;33219;47.410;9.730;2024-01-27T09:40:13;8.60;99.90
47482;DHT22;33219;47.410;9.730;2024-01-27T09:42:40;8.70;99.90
47482;DHT22;33219;47.410;9.730;2024-01-27T09:45:08;8.90;99.90
47482;DHT22;33219;47.410;9.730;2024-01-27T09:47:36;8.90;99.90
47482;DHT22;33219;47.410;9.730;2024-01-27T09:50:03;8.80;99.90
47482;DHT22;33219;47.410;9.730;2024-01-27T09:52:30;8.40;99.90
47482;DHT22;33219;47.410;9.730;2024-01-27T09:54:57;8.40;99.90
47482;DHT22;33219;47.410;9.730;2024-01-27T09:57:24;8.30;99.90
47482;DHT22;33219;47.410;9.730;2024-01-27T09:59:51;8.10;99.90
47482;DHT22;33219;47.410;9.730;2024-01-27T10:02:18;8.10;99.90
47482;DHT22;33219;47.410;9.730;2024-01-27T10:04:47;8.20;99.90
47482;DHT22;33219;47.410;9.730;2024-01-27T10:07:14;8.20;99.90
47482;DHT22;33219;47.410;9.730;2024-01-27T10:09:41;8.30;99.90
47482;DHT22;33219;47.410;9.730;2024-01-27T10:12:09;8.40;99.90
47482;DHT22;33219;47.410;9.730;2024-01-27T10:14:39;8.40;99.90
47482;DHT22;33219;47.410;9.730;2024-01-27T10:17:09;8.50;99.90
47482;DHT22;33219;47.410;9.730;2024-01-27T10:19:35;8.60;99.90
47482;DHT22;33219;47.410;9.730;2024-01-27T10:22:01;8.60;99.90
47482;DHT22;33219;47.410;9.730;2024-01-27T10:24:29;8.70;99.90
47482;DHT22;33219;47.410;9.730;2024-01-27T10:27:00;8.80;99.90
47482;DHT22;33219;47.410;9.730;2024-01-27T10:29:26;8.70;99.90
47482;DHT22;33219;47.410;9.730;2024-01-27T10:31:54;8.70;99.90
47482;DHT22;33219;47.410;9.730;2024-01-27T10:34:20;8.60;99.90
47482;DHT22;33219;47.410;9.730;2024-01-27T10:36:47;8.70;99.90
47482;DHT22;33219;47.410;9.730;2024-01-27T10:39:15;8.80;99.90
47482;DHT22;33219;47.410;9.730;2024-01-27T10:41:44;8.80;99.90
47482;DHT22;33219;47.410;9.730;2024-01-27T10:44:12;8.80;99.90
47482;DHT22;33219;47.410;9.730;2024-01-27T10:46:40;8.80;99.90
47482;DHT22;33219;47.410;9.730;2024-01-27T10:49:08;8.80;99.90
47482;DHT22;33219;47.410;9.730;2024-01-27T10:51:36;8.80;99.90
47482;DHT22;33219;47.410;9.730;2024-01-27T10:54:03;8.70;99.90
47482;DHT22;33219;47.410;9.730;2024-01-27T10:56:32;8.70;99.90
47482;DHT22;33219;47.410;9.730;2024-01-27T10:59:01;8.70;99.90
47482;DHT22;33219;47.410;9.730;2024-01-27T11:01:30;8.60;99.90
47482;DHT22;33219;47.410;9.730;2024-01-27T11:03:57;8.60;99.90
47482;DHT22;33219;47.410;9.730;2024-01-27T11:06:25;8.70;99.90
47482;DHT22;33219;47.410;9.730;2024-01-27T11:08:53;8.70;99.90
47482;DHT22;33219;47.410;9.730;2024-01-27T11:11:21;8.70;99.90
47482;DHT22;33219;47.410;9.730;2024-01-27T11:13:48;8.70;99.90
47482;DHT22;33219;47.410;9.730;2024-01-27T11:16:17;8.70;99.90
47482;DHT22;33219;47.410;9.730;2024-01-27T11:18:44;8.80;99.90
47482;DHT22;33219;47.410;9.730;2024-01-27T11:21:15;8.90;99.90
47482;DHT22;33219;47.410;9.730;2024-01-27T11:23:42;8.90;99.90
47482;DHT22;33219;47.410;9.730;2024-01-27T11:26:10;8.90;99.90
47482;DHT22;33219;47.410;9.730;2024-01-27T11:28:39;8.90;99.90
47482;DHT22;33219;47.410;9.730;2024-01-27T11:31:07;9.00;99.90
47482;DHT22;33219;47.410;9.730;2024-01-27T11:33:39;8.90;99.90
47482;DHT22;33219;47.410;9.730;2024-01-27T11:36:05;9.00;99.90
47482;DHT22;33219;47.410;9.730;2024-01-27T11:38:32;9.00;99.90
47482;DHT22;33219;47.410;9.730;2024-01-27T11:41:02;9.00;99.90
47482;DHT22;33219;47.410;9.730;2024-01-27T11:43:29;9.10;99.90
47482;DHT22;33219;47.410;9.730;2024-01-27T11:45:59;9.10;99.90
47482;DHT22;33219;47.410;9.730;2024-01-27T11:48:27;9.00;99.90
47482;DHT22;33219;47.410;9.730;2024-01-27T11:51:05;8.90;99.90
47482;DHT22;33219;47.410;9.730;2024-01-27T11:53:29;8.90;99.90
47482;DHT22;33219;47.410;9.730;2024-01-27T11:55:56;8.90;99.90
47482;DHT22;33219;47.410;9.730;2024-01-27T11:58:25;9.00;99.90
47482;DHT22;33219;47.410;9.730;2024-01-27T12:00:52;8.90;99.90
47482;DHT22;33219;47.410;9.730;2024-01-27T12:03:19;8.90;99.90
47482;DHT22;33219;47.410;9.730;2024-01-27T12:05:46;8.90;99.90
47482;DHT22;33219;47.410;9.730;2024-01-27T12:08:12;9.00;99.90
47482;DHT22;33219;47.410;9.730;2024-01-27T12:10:39;9.00;99.90
47482;DHT22;33219;47.410;9.730;2024-01-27T12:13:06;9.00;99.90
47482;DHT22;33219;47.410;9.730;2024-01-27T12:15:33;9.00;99.90
47482;DHT22;33219;47.410;9.730;2024-01-27T12:18:00;9.00;99.90
47482;DHT22;33219;47.410;9.730;2024-01-27T12:20:27;9.00;99.90
47482;DHT22;33219;47.410;9.730;2024-01-27T12:23:06;8.90;99.90
47482;DHT22;33219;47.410;9.730;2024-01-27T12:25:33;9.00;99.90
47482;DHT22;33219;47.410;9.730;2024-01-27T12:28:03;9.00;99.90
47482;DHT22;33219;47.410;9.730;2024-01-27T12:30:35;9.10;99.90
47482;DHT22;33219;47.410;9.730;2024-01-27T12:33:07;9.10;99.90
47482;DHT22;33219;47.410;9.730;2024-01-27T12:35:28;9.20;99.90
47482;DHT22;33219;47.410;9.730;2024-01-27T12:37:55;9.20;99.90
47482;DHT22;33219;47.410;9.730;2024-01-27T12:40:22;9.10;99.90
47482;DHT22;33219;47.410;9.730;2024-01-27T12:42:50;9.20;99.90
47482;DHT22;33219;47.410;9.730;2024-01-27T12:45:17;9.20;99.90
47482;DHT22;33219;47.410;9.730;2024-01-27T12:47:44;9.30;99.90
47482;DHT22;33219;47.410;9.730;2024-01-27T12:50:11;9.30;99.90
47482;DHT22;33219;47.410;9.730;2024-01-27T12:52:39;9.20;99.90
47482;DHT22;33219;47.410;9.730;2024-01-27T12:55:06;9.30;99.90
47482;DHT22;33219;47.410;9.730;2024-01-27T12:57:34;9.30;99.90
47482;DHT22;33219;47.410;9.730;2024-01-27T13:00:01;9.30;99.90
47482;DHT22;33219;47.410;9.730;2024-01-27T13:02:30;9.30;99.90
47482;DHT22;33219;47.410;9.730;2024-01-27T13:04:56;9.30;99.90
47482;DHT22;33219;47.410;9.730;2024-01-27T13:07:23;9.40;99.90
47482;DHT22;33219;47.410;9.730;2024-01-27T13:09:50;9.40;99.90
47482;DHT22;33219;47.410;9.730;2024-01-27T13:12:17;9.40;99.90
47482;DHT22;33219;47.410;9.730;2024-01-27T13:14:44;9.50;99.90
47482;DHT22;33219;47.410;9.730;2024-01-27T13:17:11;9.50;99.90
47482;DHT22;33219;47.410;9.730;2024-01-27T13:19:40;9.60;99.90
47482;DHT22;33219;47.410;9.730;2024-01-27T13:22:07;9.70;99.90
47482;DHT22;33219;47.410;9.730;2024-01-27T13:24:33;9.60;99.90
47482;DHT22;33219;47.410;9.730;2024-01-27T13:27:01;9.60;99.90
47482;DHT22;33219;47.410;9.730;2024-01-27T13:29:28;9.60;99.90
47482;DHT22;33219;47.410;9.730;2024-01-27T13:31:55;9.50;99.90
47482;DHT22;33219;47.410;9.730;2024-01-27T13:34:24;9.50;99.90
47482;DHT22;33219;47.410;9.730;2024-01-27T13:36:51;9.50;99.90
47482;DHT22;33219;47.410;9.730;2024-01-27T13:39:18;9.50;99.90
47482;DHT22;33219;47.410;9.730;2024-01-27T13:41:44;9.40;99.90
47482;DHT22;33219;47.410;9.730;2024-01-27T13:44:11;9.40;99.90
47482;DHT22;33219;47.410;9.730;2024-01-27T13:46:38;9.40;99.90
47482;DHT22;33219;47.410;9.730;2024-01-27T13:49:05;9.40;99.90
47482;DHT22;33219;47.410;9.730;2024-01-27T13:51:32;9.40;99.90
47482;DHT22;33219;47.410;9.730;2024-01-27T13:53:59;9.30;99.90
47482;DHT22;33219;47.410;9.730;2024-01-27T13:56:25;9.30;99.90
47482;DHT22;33219;47.410;9.730;2024-01-27T13:58:54;9.30;99.90
47482;DHT22;33219;47.410;9.730;2024-01-27T14:01:21;9.30;99.90
47482;DHT22;33219;47.410;9.730;2024-01-27T14:03:48;9.20;99.90
47482;DHT22;33219;47.410;9.730;2024-01-27T14:06:15;9.20;99.90
47482;DHT22;33219;47.410;9.730;2024-01-27T14:08:43;9.10;99.90
47482;DHT22;33219;47.410;9.730;2024-01-27T14:11:10;9.10;99.90
47482;DHT22;33219;47.410;9.730;2024-01-27T14:13:37;9.10;99.90
47482;DHT22;33219;47.410;9.730;2024-01-27T14:16:04;9.10;99.90
47482;DHT22;33219;47.410;9.730;2024-01-27T14:18:31;9.10;99.90
47482;DHT22;33219;47.410;9.730;2024-01-27T14:21:00;9.00;99.90
47482;DHT22;33219;47.410;9.730;2024-01-27T14:23:26;9.00;99.90
47482;DHT22;33219;47.410;9.730;2024-01-27T14:25:54;9.00;99.90
47482;DHT22;33219;47.410;9.730;2024-01-27T14:28:22;8.90;99.90
47482;DHT22;33219;47.410;9.730;2024-01-27T14:30:49;8.80;99.90
47482;DHT22;33219;47.410;9.730;2024-01-27T14:33:16;8.80;99.90
47482;DHT22;33219;47.410;9.730;2024-01-27T14:35:44;8.80;99.90
47482;DHT22;33219;47.410;9.730;2024-01-27T14:38:11;8.80;99.90
47482;DHT22;33219;47.410;9.730;2024-01-27T14:40:39;8.70;99.90
47482;DHT22;33219;47.410;9.730;2024-01-27T14:43:05;8.70;99.90
47482;DHT22;33219;47.410;9.730;2024-01-27T14:45:37;8.70;99.90
47482;DHT22;33219;47.410;9.730;2024-01-27T14:48:04;8.60;99.90
47482;DHT22;33219;47.410;9.730;2024-01-27T14:50:31;8.50;99.90
47482;DHT22;33219;47.410;9.730;2024-01-27T14:52:58;8.50;99.90
47482;DHT22;33219;47.410;9.730;2024-01-27T14:55:27;8.40;99.90
47482;DHT22;33219;47.410;9.730;2024-01-27T14:57:53;8.40;99.90
47482;DHT22;33219;47.410;9.730;2024-01-27T15:00:20;8.30;99.90
47482;DHT22;33219;47.410;9.730;2024-01-27T15:02:47;8.20;99.90
47482;DHT22;33219;47.410;9.730;2024-01-27T15:05:14;8.10;99.90
47482;DHT22;33219;47.410;9.730;2024-01-27T15:07:41;8.00;99.90
47482;DHT22;33219;47.410;9.730;2024-01-27T15:10:08;7.90;99.90
47482;DHT22;33219;47.410;9.730;2024-01-27T15:12:37;7.80;99.90
47482;DHT22;33219;47.410;9.730;2024-01-27T15:15:04;7.80;99.90
47482;DHT22;33219;47.410;9.730;2024-01-27T15:17:31;7.70;99.90
47482;DHT22;33219;47.410;9.730;2024-01-27T15:19:58;7.60;99.90
47482;DHT22;33219;47.410;9.730;2024-01-27T15:22:25;7.50;99.90
47482;DHT22;33219;47.410;9.730;2024-01-27T15:24:52;7.40;99.90
47482;DHT22;33219;47.410;9.730;2024-01-27T15:27:20;7.30;99.90
47482;DHT22;33219;47.410;9.730;2024-01-27T15:29:46;7.20;99.90
47482;DHT22;33219;47.410;9.730;2024-01-27T15:32:13;7.20;99.90
47482;DHT22;33219;47.410;9.730;2024-01-27T15:34:42;7.10;99.90
47482;DHT22;33219;47.410;9.730;2024-01-27T15:37:09;7.00;99.90
47482;DHT22;33219;47.410;9.730;2024-01-27T15:39:35;7.00;99.90
47482;DHT22;33219;47.410;9.730;2024-01-27T15:42:02;6.90;99.90
47482;DHT22;33219;47.410;9.730;2024-01-27T15:44:30;6.80;99.90